Time;durP1;ratioP1;P1;durP2;ratioP2;P2;SDS_P1;SDS_P2;PMS_P1;PMS_P2;Temp;Humidity;BMP_temperature;BMP_pressure;BME280_temperature;BME280_humidity;BME280_pressure;Samples;Min_cycle;Max_cycle;Signal;HPM_P1;HPM_P2
2021/06/28 00:00:01;;;;;;;14.37;13.40;;;25.30;95.70;;;;;;3593675;39;20489;-64
2021/06/28 00:02:30;;;;;;;14.57;13.67;;;25.30;95.70;;;;;;3594269;40;20554;-64
2021/06/28 00:04:57;;;;;;;15.30;14.30;;;25.30;95.70;;;;;;3594394;40;20475;-64
2021/06/28 00:07:25;;;;;;;14.10;13.20;;;25.30;95.70;;;;;;3594108;40;21110;-64
2021/06/28 00:09:54;;;;;;;14.20;13.30;;;25.30;95.80;;;;;;3593926;40;20480;-64
2021/06/28 00:12:29;;;;;;;14.43;13.47;;;25.30;95.80;;;;;;3593807;40;20479;-64
2021/06/28 00:14:56;;;;;;;13.37;12.47;;;25.30;95.80;;;;;;3594213;40;20515;-64
2021/06/28 00:17:24;;;;;;;13.93;12.93;;;25.30;95.80;;;;;;3593647;40;20485;-64
2021/06/28 00:19:51;;;;;;;14.87;13.90;;;25.30;95.70;;;;;;3593986;40;20533;-64
2021/06/28 00:22:18;;;;;;;15.00;14.10;;;25.30;95.70;;;;;;3593631;40;20506;-64
2021/06/28 00:24:46;;;;;;;13.97;13.17;;;25.30;95.80;;;;;;3593018;40;20554;-63
2021/06/28 00:27:14;;;;;;;13.80;13.00;;;25.30;95.80;;;;;;3593667;40;20507;-64
2021/06/28 00:29:41;;;;;;;13.50;12.70;;;25.30;95.80;;;;;;3592668;40;20473;-64
2021/06/28 00:32:08;;;;;;;14.13;13.13;;;25.30;95.80;;;;;;3593615;40;20468;-64
2021/06/28 00:34:36;;;;;;;13.60;12.80;;;25.30;95.80;;;;;;3594005;40;20523;-64
2021/06/28 00:37:03;;;;;;;14.20;13.30;;;25.30;95.80;;;;;;3594151;40;20493;-64
2021/06/28 00:39:30;;;;;;;14.07;13.27;;;25.30;95.80;;;;;;3593342;40;20562;-64
2021/06/28 00:41:57;;;;;;;13.10;12.30;;;25.30;95.80;;;;;;3593692;40;20513;-64
2021/06/28 00:44:26;;;;;;;13.20;12.50;;;25.30;95.80;;;;;;3593816;40;21154;-64
2021/06/28 00:46:53;;;;;;;14.23;13.33;;;25.30;95.80;;;;;;3594205;40;20498;-64
2021/06/28 00:49:20;;;;;;;13.27;12.47;;;25.30;95.80;;;;;;3594237;40;20509;-64
2021/06/28 00:51:48;;;;;;;14.57;13.67;;;25.30;95.80;;;;;;3593313;40;20474;-64
2021/06/28 00:54:16;;;;;;;13.67;12.80;;;25.30;95.80;;;;;;3584352;40;20481;-64
2021/06/28 00:56:43;;;;;;;14.43;13.60;;;25.30;95.80;;;;;;3593742;40;20500;-64
2021/06/28 00:59:11;;;;;;;13.60;12.80;;;25.30;95.80;;;;;;3593699;40;20473;-64
2021/06/28 01:01:39;;;;;;;13.30;12.57;;;25.30;95.80;;;;;;3593921;40;20477;-63
2021/06/28 01:04:06;;;;;;;15.13;13.83;;;25.30;95.80;;;;;;3593245;40;20521;-64
2021/06/28 01:06:33;;;;;;;14.23;13.23;;;25.30;95.80;;;;;;3593477;40;21379;-64
2021/06/28 01:09:00;;;;;;;14.20;13.30;;;25.30;95.80;;;;;;3593487;40;20506;-64
2021/06/28 01:11:27;;;;;;;13.87;13.07;;;25.30;95.80;;;;;;3583666;40;20888;-64
2021/06/28 01:13:55;;;;;;;14.10;13.20;;;25.30;95.80;;;;;;3593344;40;20868;-64
2021/06/28 01:16:22;;;;;;;13.90;13.03;;;25.30;95.80;;;;;;3593970;40;20795;-64
2021/06/28 01:18:50;;;;;;;13.80;12.90;;;25.30;95.80;;;;;;3594005;40;20481;-64
2021/06/28 01:21:19;;;;;;;13.77;12.93;;;25.30;95.90;;;;;;3593505;40;20496;-64
2021/06/28 01:23:48;;;;;;;14.90;14.00;;;25.30;95.80;;;;;;3594296;40;20850;-64
2021/06/28 01:26:15;;;;;;;14.47;13.60;;;25.30;95.90;;;;;;3593187;40;20519;-63
2021/06/28 01:28:42;;;;;;;13.30;12.40;;;25.30;95.90;;;;;;3593597;40;20476;-64
2021/06/28 01:31:11;;;;;;;13.90;13.00;;;25.30;95.90;;;;;;3593201;40;20568;-64
2021/06/28 01:33:38;;;;;;;13.70;12.90;;;25.30;95.90;;;;;;3593263;40;21139;-64
2021/06/28 01:36:07;;;;;;;13.90;12.97;;;25.30;95.90;;;;;;3593656;40;20586;-63
2021/06/28 01:38:41;;;;;;;14.80;13.80;;;25.30;95.90;;;;;;3593714;40;20562;-64
2021/06/28 01:41:09;;;;;;;14.10;13.10;;;25.30;95.90;;;;;;3594014;40;20501;-64
2021/06/28 01:43:37;;;;;;;13.03;12.23;;;25.30;95.90;;;;;;3593448;40;21110;-64
2021/06/28 01:46:04;;;;;;;14.30;13.50;;;25.30;95.90;;;;;;3593503;40;20489;-64
2021/06/28 01:48:31;;;;;;;14.37;13.37;;;25.30;95.90;;;;;;3585123;40;20901;-64
2021/06/28 01:50:58;;;;;;;13.40;12.50;;;25.30;95.90;;;;;;3584559;40;20470;-64
2021/06/28 01:53:25;;;;;;;14.10;13.20;;;25.30;95.90;;;;;;3593353;40;20489;-64
2021/06/28 01:55:52;;;;;;;14.60;13.70;;;25.30;95.90;;;;;;3593246;40;20578;-64
2021/06/28 01:58:21;;;;;;;13.60;12.80;;;25.30;95.90;;;;;;3593756;40;20582;-64
2021/06/28 02:00:50;;;;;;;12.90;12.20;;;25.30;95.90;;;;;;3593426;40;20976;-64
2021/06/28 02:03:19;;;;;;;13.57;12.87;;;25.30;95.90;;;;;;3593535;40;20493;-64
2021/06/28 02:05:47;;;;;;;14.50;13.70;;;25.30;95.90;;;;;;3593176;40;20562;-64
2021/06/28 02:08:16;;;;;;;13.40;12.60;;;25.30;95.90;;;;;;3593354;40;20570;-64
2021/06/28 02:10:48;;;;;;;13.63;12.83;;;25.30;95.90;;;;;;3593057;40;21133;-64
2021/06/28 02:13:15;;;;;;;14.37;13.23;;;25.30;95.90;;;;;;3592318;40;20486;-63
2021/06/28 02:15:44;;;;;;;12.50;11.80;;;25.30;95.90;;;;;;3592804;40;20857;-64
2021/06/28 02:18:11;;;;;;;13.20;12.50;;;25.30;95.90;;;;;;3592759;40;20497;-64
2021/06/28 02:20:38;;;;;;;13.63;12.80;;;25.30;95.90;;;;;;3593446;40;20485;-63
2021/06/28 02:23:23;;;;;;;13.07;12.37;;;25.30;96.00;;;;;;3592153;39;20470;-64
2021/06/28 02:25:54;;;;;;;13.40;12.60;;;25.30;96.00;;;;;;3592775;40;20512;-62
2021/06/28 02:28:21;;;;;;;13.87;13.03;;;25.30;96.00;;;;;;3592830;40;20473;-63
2021/06/28 02:30:50;;;;;;;13.93;13.07;;;25.30;96.00;;;;;;3584106;40;20481;-63
2021/06/28 02:33:17;;;;;;;13.30;12.60;;;25.30;96.00;;;;;;3593466;40;20705;-64
2021/06/28 02:35:44;;;;;;;14.40;13.43;;;25.30;96.00;;;;;;3593289;40;20489;-64
2021/06/28 02:38:12;;;;;;;13.40;12.70;;;25.30;96.00;;;;;;3593842;40;20562;-64
2021/06/28 02:40:40;;;;;;;14.23;13.43;;;25.30;96.00;;;;;;3593675;40;20569;-64
2021/06/28 02:43:27;;;;;;;14.73;13.83;;;25.30;96.00;;;;;;3564537;40;20590;-64
2021/06/28 02:45:56;;;;;;;13.90;13.10;;;25.30;96.00;;;;;;3593277;40;20876;-63
2021/06/28 02:48:23;;;;;;;15.10;13.80;;;25.30;96.00;;;;;;3593322;40;20575;-64
2021/06/28 02:50:51;;;;;;;14.13;13.23;;;25.30;96.10;;;;;;3592673;40;20484;-64
2021/06/28 02:53:19;;;;;;;14.40;13.10;;;25.30;96.10;;;;;;3592608;40;20554;-64
2021/06/28 02:55:48;;;;;;;13.90;13.20;;;25.30;96.10;;;;;;3592690;40;20504;-64
2021/06/28 02:58:15;;;;;;;14.47;13.50;;;25.30;96.10;;;;;;3592489;40;20525;-63
2021/06/28 03:00:42;;;;;;;14.00;13.20;;;25.30;96.10;;;;;;3592140;40;21275;-63
2021/06/28 03:03:11;;;;;;;14.30;13.40;;;25.30;96.10;;;;;;3592030;40;20571;-64
2021/06/28 03:05:39;;;;;;;13.63;12.83;;;25.30;96.10;;;;;;3593005;40;20465;-64
2021/06/28 03:08:07;;;;;;;13.20;12.40;;;25.30;96.10;;;;;;3592840;40;20461;-64
2021/06/28 03:10:35;;;;;;;13.67;12.87;;;25.30;96.10;;;;;;3592584;40;20469;-64
2021/06/28 03:13:03;;;;;;;13.20;12.40;;;25.30;96.10;;;;;;3592664;40;20844;-64
2021/06/28 03:15:30;;;;;;;13.87;13.07;;;25.30;96.40;;;;;;3592745;40;20898;-64
2021/06/28 03:17:58;;;;;;;14.30;13.50;;;25.30;96.10;;;;;;3592751;40;20496;-64
2021/06/28 03:20:26;;;;;;;13.20;12.50;;;25.30;96.10;;;;;;3593306;40;20599;-64
2021/06/28 03:22:54;;;;;;;15.80;14.87;;;25.30;96.10;;;;;;3592760;40;20465;-64
2021/06/28 03:25:21;;;;;;;14.57;13.77;;;25.30;96.10;;;;;;3592353;40;20473;-64
2021/06/28 03:27:48;;;;;;;14.10;13.30;;;25.30;96.10;;;;;;3591913;40;20477;-63
2021/06/28 03:30:17;;;;;;;13.70;12.90;;;25.30;96.10;;;;;;3592189;40;20505;-64
2021/06/28 03:32:45;;;;;;;14.67;13.87;;;25.30;96.10;;;;;;3592131;39;20485;-64
2021/06/28 03:35:13;;;;;;;14.77;13.93;;;25.30;96.10;;;;;;3584029;40;20488;-64
2021/06/28 03:37:42;;;;;;;14.00;13.20;;;25.30;96.20;;;;;;3592681;40;20462;-64
2021/06/28 03:40:11;;;;;;;15.33;14.40;;;25.30;96.20;;;;;;3592795;40;20515;-64
2021/06/28 03:42:39;;;;;;;15.30;14.43;;;25.30;96.20;;;;;;3593515;40;20473;-64
2021/06/28 03:45:08;;;;;;;14.77;13.97;;;25.30;96.20;;;;;;3594148;40;20465;-64
2021/06/28 03:47:35;;;;;;;14.73;13.83;;;25.30;96.10;;;;;;3592801;40;20477;-64
2021/06/28 03:50:03;;;;;;;14.00;13.20;;;25.30;96.20;;;;;;3593908;40;20473;-64
2021/06/28 03:52:30;;;;;;;15.97;15.17;;;25.30;96.20;;;;;;3593072;40;20856;-64
2021/06/28 03:54:59;;;;;;;15.60;14.70;;;25.30;96.20;;;;;;3593282;40;20473;-64
2021/06/28 03:57:26;;;;;;;14.53;13.80;;;25.30;96.20;;;;;;3592260;40;20473;-64
2021/06/28 03:59:53;;;;;;;15.40;14.60;;;25.30;96.20;;;;;;3591882;40;20497;-63
2021/06/28 04:02:21;;;;;;;15.90;14.90;;;25.30;96.20;;;;;;3592739;40;20463;-64
2021/06/28 04:04:49;;;;;;;15.80;14.90;;;25.30;96.20;;;;;;3594185;40;20554;-64
2021/06/28 04:07:16;;;;;;;14.43;13.73;;;25.30;96.20;;;;;;3592098;40;20477;-64
2021/06/28 04:09:44;;;;;;;14.30;13.50;;;25.30;96.20;;;;;;3592192;40;20533;-64
2021/06/28 04:12:13;;;;;;;17.00;15.80;;;25.30;96.20;;;;;;3592005;40;20491;-64
2021/06/28 04:14:41;;;;;;;15.30;14.50;;;25.30;96.20;;;;;;3592499;40;20496;-64
2021/06/28 04:17:09;;;;;;;15.37;14.57;;;25.30;96.20;;;;;;3591403;40;20481;-64
2021/06/28 04:19:36;;;;;;;15.30;14.40;;;25.30;96.20;;;;;;3592048;40;20474;-64
2021/06/28 04:22:04;;;;;;;15.50;14.40;;;25.30;96.20;;;;;;3591922;40;20863;-64
2021/06/28 04:24:31;;;;;;;15.40;14.60;;;25.30;96.20;;;;;;3582765;40;20695;-64
2021/06/28 04:26:58;;;;;;;15.30;14.40;;;25.30;96.20;;;;;;3591597;40;20469;-64
2021/06/28 04:29:27;;;;;;;15.67;14.77;;;25.30;96.30;;;;;;3590657;40;20567;-64
2021/06/28 04:31:54;;;;;;;15.30;14.30;;;25.30;96.20;;;;;;3590474;40;20850;-64
2021/06/28 04:34:21;;;;;;;15.63;14.77;;;25.30;96.30;;;;;;3589984;40;20485;-64
2021/06/28 04:36:49;;;;;;;16.30;15.40;;;25.30;96.20;;;;;;3588073;40;20489;-64
2021/06/28 04:39:16;;;;;;;15.43;14.63;;;25.30;96.20;;;;;;3588824;40;20465;-64
2021/06/28 04:41:43;;;;;;;15.63;14.93;;;25.30;96.30;;;;;;3588751;40;20469;-64
2021/06/28 04:44:10;;;;;;;15.13;14.33;;;25.30;96.30;;;;;;3588695;40;20557;-64
2021/06/28 04:46:39;;;;;;;15.57;14.77;;;25.30;96.30;;;;;;3588365;40;20593;-64
2021/06/28 04:49:06;;;;;;;15.40;14.60;;;25.30;96.30;;;;;;3588906;40;20614;-63
2021/06/28 04:51:34;;;;;;;15.80;15.00;;;25.30;96.30;;;;;;3587131;40;20469;-64
2021/06/28 04:54:01;;;;;;;15.97;15.07;;;25.30;96.30;;;;;;3586995;40;20473;-63
2021/06/28 04:56:28;;;;;;;15.40;14.70;;;25.30;96.30;;;;;;3588045;40;20485;-64
2021/06/28 04:58:55;;;;;;;17.60;16.50;;;25.30;96.30;;;;;;3587062;40;20465;-64
2021/06/28 05:01:23;;;;;;;15.97;15.17;;;25.30;96.30;;;;;;3586921;40;20488;-64
2021/06/28 05:03:51;;;;;;;15.33;14.63;;;25.30;96.30;;;;;;3588284;40;20562;-64
2021/06/28 05:06:18;;;;;;;15.57;14.67;;;25.30;96.30;;;;;;3587915;40;20484;-64
2021/06/28 05:08:45;;;;;;;15.27;14.40;;;25.30;96.30;;;;;;3586240;40;20602;-64
2021/06/28 05:11:13;;;;;;;17.33;16.43;;;25.30;96.30;;;;;;3585518;40;20482;-63
2021/06/28 05:13:40;;;;;;;15.63;14.83;;;25.30;96.30;;;;;;3585403;40;20756;-64
2021/06/28 05:16:07;;;;;;;14.93;14.20;;;25.30;96.30;;;;;;3584941;40;20466;-64
2021/06/28 05:18:34;;;;;;;15.33;14.63;;;25.30;96.30;;;;;;3585444;40;20578;-64
2021/06/28 05:21:03;;;;;;;15.93;15.03;;;25.30;96.30;;;;;;3583741;40;20466;-64
2021/06/28 05:23:30;;;;;;;15.00;14.17;;;25.30;96.30;;;;;;3583035;40;20496;-64
2021/06/28 05:25:57;;;;;;;15.03;14.03;;;25.30;96.30;;;;;;3581203;40;20477;-64
2021/06/28 05:28:25;;;;;;;14.67;13.70;;;25.30;96.30;;;;;;3574237;40;20473;-64
2021/06/28 05:30:52;;;;;;;15.20;14.40;;;25.30;96.30;;;;;;3582491;40;20477;-63
2021/06/28 05:33:19;;;;;;;14.43;13.33;;;25.40;96.40;;;;;;3582341;40;21542;-62
2021/06/28 05:35:46;;;;;;;14.20;13.40;;;25.30;97.40;;;;;;3580807;40;20481;-62
2021/06/28 05:38:15;;;;;;;13.00;12.27;;;25.20;98.00;;;;;;3582385;40;20481;-62
2021/06/28 05:40:42;;;;;;;12.80;12.10;;;25.10;98.70;;;;;;3581389;40;21275;-62
2021/06/28 05:43:10;;;;;;;13.60;12.90;;;25.00;99.00;;;;;;3582559;40;20623;-62
2021/06/28 05:45:37;;;;;;;16.97;13.17;;;24.90;99.10;;;;;;3579909;40;20558;-63
2021/06/28 05:48:05;;;;;;;13.00;12.20;;;24.80;99.70;;;;;;3579466;40;20505;-62
2021/06/28 05:50:33;;;;;;;12.13;11.53;;;24.70;99.90;;;;;;3582541;40;20782;-62
2021/06/28 05:53:02;;;;;;;12.83;11.97;;;24.60;99.90;;;;;;3580208;40;20570;-62
2021/06/28 05:55:30;;;;;;;12.13;11.47;;;24.60;99.90;;;;;;3569925;40;20492;-62
2021/06/28 05:57:57;;;;;;;13.07;12.27;;;24.60;99.90;;;;;;3578546;39;20559;-62
2021/06/28 06:00:25;;;;;;;12.77;12.07;;;24.60;99.90;;;;;;3577698;40;21087;-62
2021/06/28 06:02:53;;;;;;;12.70;12.00;;;24.60;99.90;;;;;;3578978;40;21622;-62
2021/06/28 06:05:20;;;;;;;13.90;12.90;;;24.70;99.90;;;;;;3576363;40;20464;-62
2021/06/28 06:07:47;;;;;;;12.90;12.10;;;24.70;99.90;;;;;;3574684;40;20465;-62
2021/06/28 06:10:16;;;;;;;13.63;12.67;;;24.70;99.90;;;;;;3574537;40;20528;-62
2021/06/28 06:12:45;;;;;;;12.80;12.10;;;24.70;99.90;;;;;;3576295;40;20503;-62
2021/06/28 06:15:14;;;;;;;13.40;12.70;;;24.80;99.90;;;;;;3575066;40;20507;-62
2021/06/28 06:17:41;;;;;;;12.40;11.70;;;24.80;99.90;;;;;;3575974;40;20477;-62
2021/06/28 06:20:10;;;;;;;13.10;12.40;;;24.90;99.90;;;;;;3573548;40;20857;-62
2021/06/28 06:22:37;;;;;;;12.90;12.20;;;24.90;99.90;;;;;;3574119;40;20465;-62
2021/06/28 06:25:06;;;;;;;11.40;10.70;;;24.90;99.90;;;;;;3576168;40;21126;-62
2021/06/28 06:27:33;;;;;;;12.07;11.57;;;24.90;99.90;;;;;;3574886;40;20469;-60
2021/06/28 06:30:02;;;;;;;12.43;11.63;;;25.00;99.90;;;;;;3568691;40;21001;-61
2021/06/28 06:32:29;;;;;;;11.73;11.23;;;25.00;99.90;;;;;;3573096;40;20473;-61
2021/06/28 06:34:56;;;;;;;12.40;11.80;;;25.00;99.90;;;;;;3570496;40;20965;-62
2021/06/28 06:37:23;;;;;;;12.00;11.40;;;25.00;99.90;;;;;;3570607;40;21355;-62
2021/06/28 06:39:51;;;;;;;11.97;11.37;;;25.10;99.90;;;;;;3571910;40;20465;-62
2021/06/28 06:42:18;;;;;;;11.77;11.27;;;25.10;99.90;;;;;;3572443;40;20485;-62
2021/06/28 06:44:46;;;;;;;11.70;11.20;;;25.00;99.90;;;;;;3571903;40;20660;-61
2021/06/28 06:47:14;;;;;;;12.07;11.53;;;24.90;99.90;;;;;;3575015;40;20477;-60
2021/06/28 06:49:42;;;;;;;11.47;10.93;;;24.90;99.90;;;;;;3574800;40;21325;-61
2021/06/28 06:52:09;;;;;;;11.73;11.23;;;24.90;99.90;;;;;;3570962;40;20481;-61
2021/06/28 06:54:37;;;;;;;12.37;11.67;;;24.90;99.90;;;;;;3566871;40;20489;-62
2021/06/28 06:57:06;;;;;;;11.80;10.90;;;24.90;99.90;;;;;;3565559;40;20545;-62
2021/06/28 06:59:33;;;;;;;11.77;10.97;;;25.00;99.90;;;;;;3563980;40;20477;-63
2021/06/28 07:02:01;;;;;;;11.67;10.70;;;25.00;99.90;;;;;;3573798;40;20481;-63
2021/06/28 07:04:29;;;;;;;11.20;10.53;;;25.00;99.90;;;;;;3573346;40;20485;-63
2021/06/28 07:06:56;;;;;;;12.47;11.77;;;25.10;99.90;;;;;;3571366;40;20526;-63
2021/06/28 07:09:24;;;;;;;11.27;10.67;;;25.10;99.90;;;;;;3574483;39;20484;-63
2021/06/28 07:11:51;;;;;;;11.87;11.33;;;25.20;99.90;;;;;;3575137;40;20481;-63
2021/06/28 07:14:18;;;;;;;13.27;12.37;;;25.20;99.90;;;;;;3575427;40;20492;-63
2021/06/28 07:16:45;;;;;;;12.43;11.83;;;25.20;99.90;;;;;;3572493;40;20713;-63
2021/06/28 07:19:12;;;;;;;12.20;11.70;;;25.20;99.90;;;;;;3572680;40;20497;-63
2021/06/28 07:21:41;;;;;;;12.43;11.70;;;25.30;99.90;;;;;;3575344;40;20468;-62
2021/06/28 07:24:09;;;;;;;13.70;13.00;;;25.30;99.90;;;;;;3575951;40;20479;-62
2021/06/28 07:26:36;;;;;;;11.93;11.43;;;25.30;99.90;;;;;;3573864;40;20561;-62
2021/06/28 07:29:04;;;;;;;12.77;12.07;;;25.30;99.90;;;;;;3575821;40;20484;-63
2021/06/28 07:31:31;;;;;;;13.20;12.50;;;25.40;99.90;;;;;;3573556;40;20476;-62
2021/06/28 07:33:59;;;;;;;13.77;12.73;;;25.40;99.80;;;;;;3572121;40;20581;-63
2021/06/28 07:36:26;;;;;;;14.23;13.23;;;25.40;99.80;;;;;;3570667;40;20491;-63
2021/06/28 07:38:56;;;;;;;13.73;13.03;;;25.40;99.70;;;;;;3564491;40;20919;-62
2021/06/28 07:41:23;;;;;;;13.60;12.90;;;25.40;99.70;;;;;;3575147;40;20477;-62
2021/06/28 07:43:52;;;;;;;13.17;12.47;;;25.40;99.60;;;;;;3570282;40;20476;-62
2021/06/28 07:46:19;;;;;;;13.83;12.90;;;25.50;99.60;;;;;;3570476;40;20484;-63
2021/06/28 07:48:47;;;;;;;15.07;14.20;;;25.50;99.60;;;;;;3571673;40;20582;-63
2021/06/28 07:51:14;;;;;;;16.30;15.30;;;25.50;99.50;;;;;;3573244;40;20492;-62
2021/06/28 07:53:41;;;;;;;16.03;15.17;;;25.50;99.50;;;;;;3567089;40;20496;-62
2021/06/28 07:56:17;;;;;;;14.90;14.13;;;25.50;99.40;;;;;;3572430;40;21389;-62
2021/06/28 07:58:46;;;;;;;16.13;14.93;;;25.50;99.40;;;;;;3575503;40;20476;-62
2021/06/28 08:01:14;;;;;;;15.90;15.00;;;25.50;99.40;;;;;;3573005;40;20469;-62
2021/06/28 08:03:45;;;;;;;14.73;14.03;;;25.50;99.30;;;;;;3573014;40;20493;-62
2021/06/28 08:06:13;;;;;;;15.57;14.50;;;25.50;99.30;;;;;;3573412;40;20473;-62
2021/06/28 08:08:40;;;;;;;15.90;15.03;;;25.50;99.20;;;;;;3572907;40;20488;-63
2021/06/28 08:11:09;;;;;;;15.23;14.43;;;25.60;99.30;;;;;;3570600;40;20477;-62
2021/06/28 08:13:40;;;;;;;15.20;14.50;;;25.50;99.20;;;;;;3568833;40;20837;-63
2021/06/28 08:16:08;;;;;;;14.00;13.20;;;25.60;99.20;;;;;;3574203;40;20863;-62
2021/06/28 08:18:35;;;;;;;14.30;13.50;;;25.60;99.20;;;;;;3570851;40;20500;-62
2021/06/28 08:21:04;;;;;;;15.07;13.90;;;25.60;99.20;;;;;;3569195;39;20519;-62
2021/06/28 08:23:31;;;;;;;14.53;13.77;;;25.60;99.20;;;;;;3571334;40;20469;-63
2021/06/28 08:25:59;;;;;;;14.67;13.77;;;25.60;99.10;;;;;;3573006;40;20651;-63
2021/06/28 08:28:26;;;;;;;15.60;14.80;;;25.60;99.10;;;;;;3568418;40;20481;-62
2021/06/28 08:30:55;;;;;;;15.13;14.40;;;25.60;99.10;;;;;;3565975;40;20689;-61
2021/06/28 08:33:22;;;;;;;15.10;14.30;;;25.60;99.00;;;;;;3570123;40;21035;-62
2021/06/28 08:35:50;;;;;;;16.03;15.13;;;25.60;99.00;;;;;;3569533;40;20748;-61
2021/06/28 08:38:17;;;;;;;15.50;14.80;;;25.60;99.00;;;;;;3557236;40;20550;-61
2021/06/28 08:40:48;;;;;;;16.03;15.27;;;25.60;99.00;;;;;;3568566;40;20710;-61
2021/06/28 08:43:15;;;;;;;16.03;15.13;;;25.60;99.30;;;;;;3570713;40;20780;-62
2021/06/28 08:45:44;;;;;;;14.30;13.60;;;25.60;98.90;;;;;;3569389;40;20484;-63
2021/06/28 08:48:12;;;;;;;14.30;13.60;;;25.60;98.90;;;;;;3572455;40;20575;-62
2021/06/28 08:50:41;;;;;;;15.60;14.60;;;25.60;98.90;;;;;;3572629;40;20485;-63
2021/06/28 08:53:10;;;;;;;15.00;14.20;;;25.60;98.90;;;;;;3568941;40;20548;-62
2021/06/28 08:55:39;;;;;;;15.27;14.50;;;25.60;98.90;;;;;;3563844;40;20709;-63
2021/06/28 08:58:06;;;;;;;14.50;13.60;;;25.60;98.90;;;;;;3564582;40;21109;-62
2021/06/28 09:00:34;;;;;;;15.20;14.30;;;25.60;98.90;;;;;;3567912;40;20835;-63
2021/06/28 09:03:04;;;;;;;15.00;14.17;;;25.60;98.80;;;;;;3567820;40;20588;-63
2021/06/28 09:05:51;;;;;;;15.33;14.53;;;25.60;98.80;;;;;;3555878;40;21019;-63
2021/06/28 09:08:19;;;;;;;14.97;14.17;;;25.60;98.80;;;;;;3567886;40;20506;-62
2021/06/28 09:10:47;;;;;;;13.90;13.30;;;25.60;98.70;;;;;;3566926;40;21079;-62
2021/06/28 09:13:14;;;;;;;15.20;14.33;;;25.60;98.80;;;;;;3568948;40;20986;-63
2021/06/28 09:15:43;;;;;;;15.07;14.27;;;25.60;98.70;;;;;;3569860;40;20751;-63
2021/06/28 09:18:22;;;;;;;15.13;14.33;;;25.60;98.70;;;;;;3568313;40;20497;-63
2021/06/28 09:20:53;;;;;;;15.57;14.77;;;25.70;98.80;;;;;;3568891;40;20647;-63
2021/06/28 09:23:23;;;;;;;15.77;14.97;;;25.70;98.70;;;;;;3567807;40;20751;-62
2021/06/28 09:25:53;;;;;;;15.07;14.27;;;25.60;98.70;;;;;;3570311;40;20868;-62
2021/06/28 09:28:37;;;;;;;15.03;14.23;;;25.70;98.70;;;;;;3564637;40;20508;-62
2021/06/28 09:31:04;;;;;;;14.70;14.00;;;25.70;98.80;;;;;;3557217;40;20566;-62
2021/06/28 09:33:31;;;;;;;14.70;13.93;;;25.70;98.70;;;;;;3569346;40;20486;-62
2021/06/28 09:36:01;;;;;;;15.73;14.97;;;25.70;98.70;;;;;;3571667;40;20488;-62
2021/06/28 09:38:35;;;;;;;14.47;13.77;;;25.70;98.70;;;;;;3563811;40;21177;-63
2021/06/28 09:41:26;;;;;;;13.73;13.03;;;25.70;98.70;;;;;;3566745;40;20788;-63
2021/06/28 09:44:00;;;;;;;15.90;15.13;;;25.70;98.70;;;;;;3569966;40;20902;-62
2021/06/28 09:46:28;;;;;;;14.17;13.50;;;25.70;98.60;;;;;;3564583;40;21054;-62
2021/06/28 09:48:56;;;;;;;14.47;13.60;;;25.70;98.50;;;;;;3568067;40;21088;-63
2021/06/28 09:51:27;;;;;;;14.30;13.50;;;25.70;98.60;;;;;;3565174;40;20762;-63
2021/06/28 09:53:56;;;;;;;14.40;13.60;;;25.70;98.50;;;;;;3565824;40;20533;-63
2021/06/28 09:56:32;;;;;;;13.70;13.10;;;25.70;98.50;;;;;;3564737;40;20488;-62
2021/06/28 09:58:59;;;;;;;14.23;13.53;;;25.70;98.50;;;;;;3566426;40;20843;-62
2021/06/28 10:01:26;;;;;;;15.37;14.60;;;25.70;98.50;;;;;;3565866;40;20846;-62
2021/06/28 10:03:55;;;;;;;14.93;14.10;;;25.70;98.50;;;;;;3569435;40;20493;-62
2021/06/28 10:06:31;;;;;;;14.23;13.53;;;25.70;98.40;;;;;;3564574;40;20731;-62
2021/06/28 10:09:06;;;;;;;15.37;14.57;;;25.70;98.40;;;;;;3565301;40;20735;-62
2021/06/28 10:11:41;;;;;;;14.13;13.33;;;25.70;98.40;;;;;;3565896;40;20966;-62
2021/06/28 10:14:09;;;;;;;14.07;13.40;;;25.70;98.50;;;;;;3570239;40;20605;-62
2021/06/28 10:16:38;;;;;;;14.60;13.90;;;25.70;98.50;;;;;;3566416;40;20846;-62
2021/06/28 10:19:07;;;;;;;14.60;13.90;;;25.70;98.40;;;;;;3570079;40;21028;-62
2021/06/28 10:21:37;;;;;;;14.07;13.37;;;25.70;98.30;;;;;;3574454;40;20490;-62
2021/06/28 10:24:08;;;;;;;14.20;13.50;;;25.70;98.30;;;;;;3576280;40;20740;-63
2021/06/28 10:26:36;;;;;;;13.17;12.50;;;25.70;98.20;;;;;;3573443;40;20500;-62
2021/06/28 10:29:03;;;;;;;15.30;14.53;;;25.70;98.20;;;;;;3567183;40;20463;-63
2021/06/28 10:31:31;;;;;;;13.83;13.13;;;25.70;98.10;;;;;;3569664;40;20718;-63
2021/06/28 10:34:02;;;;;;;13.87;13.23;;;25.70;98.10;;;;;;3574144;40;20547;-63
2021/06/28 10:36:33;;;;;;;14.60;13.90;;;25.70;98.00;;;;;;3569876;40;20525;-63
2021/06/28 10:39:00;;;;;;;12.73;11.90;;;25.70;97.90;;;;;;3570067;40;20564;-63
2021/06/28 10:41:37;;;;;;;13.30;12.70;;;25.70;97.70;;;;;;3569891;40;20965;-63
2021/06/28 10:44:05;;;;;;;12.87;12.17;;;25.70;97.30;;;;;;3563678;39;20783;-63
2021/06/28 10:46:35;;;;;;;12.40;11.80;;;25.70;97.10;;;;;;3571405;40;20481;-63
2021/06/28 10:49:03;;;;;;;12.57;12.00;;;25.70;96.80;;;;;;3569580;40;20587;-63
2021/06/28 10:51:45;;;;;;;13.10;12.30;;;25.70;96.80;;;;;;3570510;40;20493;-63
2021/06/28 10:54:34;;;;;;;13.57;12.77;;;25.70;96.70;;;;;;3569010;40;20922;-63
2021/06/28 10:57:20;;;;;;;12.80;12.20;;;25.70;96.70;;;;;;3570051;40;20904;-61
2021/06/28 11:00:07;;;;;;;14.17;13.37;;;25.70;96.60;;;;;;3566769;40;20594;-64
2021/06/28 11:02:52;;;;;;;14.40;13.40;;;25.70;96.70;;;;;;3568112;40;20496;-64
2021/06/28 11:05:39;;;;;;;14.40;13.57;;;25.70;96.70;;;;;;3571336;40;20575;-61
2021/06/28 11:08:24;;;;;;;14.93;14.20;;;25.70;96.70;;;;;;3572504;40;21075;-64
2021/06/28 11:11:10;;;;;;;15.47;14.57;;;25.70;96.70;;;;;;3573279;40;20545;-64
2021/06/28 11:13:56;;;;;;;15.30;14.53;;;25.70;96.80;;;;;;3573938;40;20706;-64
2021/06/28 11:16:55;;;;;;;14.57;13.80;;;25.70;96.80;;;;;;3566303;40;20582;-64
2021/06/28 11:19:53;;;;;;;14.90;14.00;;;25.70;96.80;;;;;;3568409;40;20546;-64
2021/06/28 11:22:49;;;;;;;14.97;14.17;;;25.70;96.70;;;;;;3571408;40;20598;-64
2021/06/28 11:25:23;;;;;;;15.27;14.47;;;25.70;96.80;;;;;;3571584;40;20496;-64
2021/06/28 11:28:13;;;;;;;14.37;13.67;;;25.70;96.80;;;;;;3569267;40;20641;-64
2021/06/28 11:30:53;;;;;;;15.40;14.60;;;25.70;96.80;;;;;;3563913;40;20470;-64
2021/06/28 11:33:37;;;;;;;15.10;14.20;;;25.70;96.70;;;;;;3572650;40;20558;-64
2021/06/28 11:36:06;;;;;;;16.43;15.20;;;25.70;96.70;;;;;;3578278;40;20485;-64
2021/06/28 11:38:38;;;;;;;15.93;15.03;;;25.70;96.70;;;;;;3572988;40;21211;-64
2021/06/28 11:41:15;;;;;;;16.20;15.30;;;25.70;96.70;;;;;;3574384;40;20485;-64
2021/06/28 11:43:44;;;;;;;14.97;14.00;;;25.70;96.70;;;;;;3562286;40;20570;-64
2021/06/28 11:46:15;;;;;;;16.03;15.03;;;25.70;96.70;;;;;;3577006;40;20531;-64
2021/06/28 11:48:47;;;;;;;16.30;15.20;;;25.70;96.60;;;;;;3574374;40;20478;-61
2021/06/28 11:51:20;;;;;;;16.43;15.33;;;25.70;96.60;;;;;;3572990;40;21059;-61
2021/06/28 11:53:55;;;;;;;16.97;15.90;;;25.70;96.60;;;;;;3572666;39;21248;-61
2021/06/28 11:56:25;;;;;;;16.70;15.50;;;25.70;96.60;;;;;;3573707;40;20705;-61
2021/06/28 11:59:00;;;;;;;17.23;16.20;;;25.70;96.60;;;;;;3570807;40;20586;-62
2021/06/28 12:01:31;;;;;;;15.47;14.57;;;25.70;96.60;;;;;;3574367;40;20548;-61
2021/06/28 12:04:00;;;;;;;15.83;14.93;;;25.70;96.60;;;;;;3572082;40;20498;-64
2021/06/28 12:06:31;;;;;;;17.47;16.27;;;25.70;96.50;;;;;;3576457;40;20465;-64
2021/06/28 12:09:08;;;;;;;16.80;15.60;;;25.70;96.60;;;;;;3573612;40;20676;-64
2021/06/28 12:11:36;;;;;;;16.97;15.87;;;25.70;96.60;;;;;;3572509;40;20467;-64
2021/06/28 12:14:05;;;;;;;16.83;15.73;;;25.70;96.70;;;;;;3577117;40;20775;-64
2021/06/28 12:16:33;;;;;;;15.30;14.40;;;25.70;96.70;;;;;;3571808;40;20486;-62
2021/06/28 12:19:03;;;;;;;16.80;15.70;;;25.70;96.80;;;;;;3566672;40;20493;-64
2021/06/28 12:21:32;;;;;;;16.93;15.63;;;25.70;96.80;;;;;;3568978;40;21106;-64
2021/06/28 12:24:06;;;;;;;16.97;15.93;;;25.70;96.90;;;;;;3572219;40;20709;-64
2021/06/28 12:26:34;;;;;;;16.47;15.37;;;25.70;96.90;;;;;;3572811;40;20752;-64
2021/06/28 12:29:30;;;;;;;16.27;15.27;;;25.70;97.00;;;;;;3573058;40;20481;-64
2021/06/28 12:32:10;;;;;;;16.90;15.70;;;25.70;97.00;;;;;;3574794;40;20465;-64
2021/06/28 12:34:39;;;;;;;16.07;15.10;;;25.70;97.00;;;;;;3573750;40;20493;-64
2021/06/28 12:37:07;;;;;;;16.50;15.40;;;25.70;97.00;;;;;;3575097;40;20461;-64
2021/06/28 12:39:34;;;;;;;16.20;15.30;;;25.70;97.00;;;;;;3577012;40;20800;-64